Time;durP1;ratioP1;P1;durP2;ratioP2;P2;SDS_P1;SDS_P2;PMS_P1;PMS_P2;Temp;Humidity;BMP_temperature;BMP_pressure;BME280_temperature;BME280_humidity;BME280_pressure;Samples;Min_cycle;Max_cycle;Signal;HPM_P1;HPM_P2
2022/06/29 00:00:07;;;;;;;6.95;4.32;;;;;;;15.62;76.43;101483.47;4922264;28;20017;-89
2022/06/29 00:02:32;;;;;;;7.43;4.55;;;;;;;15.58;76.67;101478.63;4922102;28;20036;-89
2022/06/29 00:05:02;;;;;;;5.87;4.40;;;;;;;15.51;76.96;101483.53;4922246;28;20091;-90
2022/06/29 00:07:36;;;;;;;6.05;4.05;;;;;;;15.47;76.75;101477.06;4922301;28;20035;-89
2022/06/29 00:10:05;;;;;;;5.43;4.25;;;;;;;15.44;77.03;101475.69;4922114;28;20043;-89
2022/06/29 00:12:30;;;;;;;5.13;3.88;;;;;;;15.38;78.30;101473.28;4922333;28;20072;-90
2022/06/29 00:15:02;;;;;;;7.93;4.10;;;;;;;15.39;78.06;101478.44;4922228;28;20028;-89
2022/06/29 00:17:32;;;;;;;7.35;3.80;;;;;;;15.38;77.54;101478.69;4922094;28;20040;-90
2022/06/29 00:19:58;;;;;;;8.65;4.43;;;;;;;15.32;78.07;101477.09;4921958;28;20021;-89
2022/06/29 00:22:24;;;;;;;5.43;4.05;;;;;;;15.27;77.98;101473.31;4922013;28;20088;-89
2022/06/29 00:24:50;;;;;;;4.22;3.83;;;;;;;15.18;78.23;101464.16;4905836;28;20024;-89
2022/06/29 00:27:15;;;;;;;8.47;4.20;;;;;;;15.17;78.26;101470.63;4921942;29;20093;-89
2022/06/29 00:29:41;;;;;;;8.13;3.97;;;;;;;15.16;78.73;101463.63;4922145;28;20091;-89
2022/06/29 00:32:07;;;;;;;6.97;4.47;;;;;;;15.11;78.35;101469.03;4921295;28;20024;-88
2022/06/29 00:34:33;;;;;;;5.53;4.45;;;;;;;15.05;79.24;101465.56;4916820;29;20033;-88
2022/06/29 00:36:59;;;;;;;6.57;4.00;;;;;;;15.06;78.93;101471.75;4921581;29;20021;-89
2022/06/29 00:39:24;;;;;;;4.68;4.03;;;;;;;14.99;79.04;101462.03;4921666;28;20048;-89
2022/06/29 00:41:49;;;;;;;9.43;4.13;;;;;;;14.97;79.30;101469.59;4921117;29;20244;-89
2022/06/29 00:44:17;;;;;;;6.57;4.33;;;;;;;14.89;79.44;101462.06;4921239;28;20376;-89
2022/06/29 00:46:49;;;;;;;6.88;4.25;;;;;;;14.86;79.69;101451.78;4905696;28;20077;-89
2022/06/29 00:49:19;;;;;;;8.10;4.23;;;;;;;14.84;80.23;101456.66;4921730;28;20025;-90
2022/06/29 00:51:49;;;;;;;5.73;4.70;;;;;;;14.80;80.77;101455.56;4904649;29;20317;-89
2022/06/29 00:54:23;;;;;;;7.00;4.00;;;;;;;14.81;80.16;101452.63;4921388;28;20076;-90
2022/06/29 00:56:50;;;;;;;5.78;4.53;;;;;;;14.76;80.18;101446.41;4920919;28;20031;-88
2022/06/29 00:59:22;;;;;;;9.35;4.60;;;;;;;14.76;80.68;101451.81;4921248;28;20025;-89
2022/06/29 01:01:48;;;;;;;6.00;4.40;;;;;;;14.70;81.15;101442.91;4920803;28;20017;-89
2022/06/29 01:04:14;;;;;;;7.20;4.65;;;;;;;14.64;80.94;101433.19;4920729;28;20040;-89
2022/06/29 01:06:40;;;;;;;5.57;4.40;;;;;;;14.61;81.00;101437.22;4920858;28;20028;-90
2022/06/29 01:09:07;;;;;;;8.30;4.70;;;;;;;14.59;81.01;101436.69;4919531;28;20025;-90
2022/06/29 01:11:33;;;;;;;7.23;4.80;;;;;;;14.51;82.04;101421.03;4920372;29;20023;-88
2022/06/29 01:13:59;;;;;;;6.23;4.47;;;;;;;14.54;81.69;101434.00;4920675;28;20300;-89
2022/06/29 01:16:26;;;;;;;8.57;4.72;;;;;;;14.48;81.87;101435.88;4920938;28;20035;-88
2022/06/29 01:18:54;;;;;;;7.10;4.18;;;;;;;14.47;82.11;101438.81;4919660;28;20031;-89
2022/06/29 01:21:22;;;;;;;8.90;4.75;;;;;;;14.38;82.39;101436.69;4920781;28;20029;-88
2022/06/29 01:23:47;;;;;;;5.40;4.70;;;;;;;14.35;82.83;101437.22;4919908;29;20037;-89
2022/06/29 01:26:14;;;;;;;9.13;4.50;;;;;;;14.32;82.99;101443.13;4920256;28;20072;-89
2022/06/29 01:28:46;;;;;;;7.72;4.82;;;;;;;14.28;83.25;101433.16;4919726;28;20029;-88
2022/06/29 01:31:16;;;;;;;7.00;4.68;;;;;;;14.21;83.06;101425.34;4920153;28;20020;-88
2022/06/29 01:33:42;;;;;;;6.93;4.55;;;;;;;14.19;83.71;101428.28;4919987;28;20043;-88
2022/06/29 01:39:21;;;;;;;7.20;4.30;;;;;;;14.14;83.59;101432.88;5456083;23;20575;-89
2022/06/29 01:41:55;;;;;;;7.93;4.72;;;;;;;13.92;83.83;101388.91;4919021;28;20028;-89
2022/06/29 01:44:48;;;;;;;6.18;4.40;;;;;;;14.13;83.58;101428.56;4920226;28;20033;-88
2022/06/29 01:47:20;;;;;;;7.10;5.05;;;;;;;13.92;84.60;101394.31;4919359;28;20088;-88
2022/06/29 01:50:22;;;;;;;6.10;4.90;;;;;;;13.90;84.23;101399.16;4919627;29;20088;-89
2022/06/29 01:52:50;;;;;;;6.57;4.80;;;;;;;13.75;84.62;101385.66;4894912;28;20048;-90
2022/06/29 01:55:36;;;;;;;6.28;4.63;;;;;;;13.98;85.38;101427.44;4919702;28;20121;-89
2022/06/29 01:58:52;;;;;;;;;;;;;;;;;;;;;
2022/06/29 02:01:18;;;;;;;6.32;4.38;;;;;;;13.58;85.45;101384.00;4891676;29;20184;-89
2022/06/29 02:03:46;;;;;;;7.17;4.70;;;;;;;13.57;85.79;101384.22;4913967;29;20241;-89
2022/06/29 02:06:15;;;;;;;6.68;4.72;;;;;;;13.57;86.35;101385.06;4915505;29;20055;-89
2022/06/29 02:08:40;;;;;;;8.23;4.90;;;;;;;13.60;86.59;101389.91;4919279;28;20032;-90
2022/06/29 02:11:16;;;;;;;7.20;4.90;;;;;;;13.67;86.39;101413.91;5132336;23;20047;-90
2022/06/29 02:14:01;;;;;;;7.35;4.78;;;;;;;13.45;86.83;101382.59;4899803;29;20485;-90
2022/06/29 02:19:18;;;;;;;;;;;;;;;;;;;;;
2022/06/29 02:21:43;;;;;;;7.65;4.85;;;;;;;13.46;87.91;101411.13;4901543;29;20116;-87
2022/06/29 02:24:18;;;;;;;5.33;4.83;;;;;;;13.40;87.52;101401.41;4905532;29;20052;-88
2022/06/29 02:27:24;;;;;;;6.05;5.20;;;;;;;13.52;88.15;101411.97;4904156;29;20318;-88
2022/06/29 02:30:16;;;;;;;;;;;;;;;;;;;;;
2022/06/29 02:39:07;;;;;;;6.75;5.13;;;;;;;13.47;87.34;101385.00;5077165;23;20063;-89
2022/06/29 02:42:11;;;;;;;6.20;5.60;;;;;;;13.72;87.52;101413.09;4905264;29;20444;-89
2022/06/29 02:48:25;;;;;;;8.85;5.30;;;;;;;13.84;87.21;101404.78;4997200;23;20064;-89
2022/06/29 02:51:03;;;;;;;6.65;5.90;;;;;;;13.65;87.07;101370.28;4901145;29;20080;-89
2022/06/29 02:54:08;;;;;;;6.13;5.53;;;;;;;13.68;86.71;101369.75;4900914;29;20032;-88
2022/06/29 02:57:01;;;;;;;8.10;5.80;;;;;;;13.84;86.85;101394.81;4900294;29;20109;-89
2022/06/29 02:59:32;;;;;;;6.60;5.70;;;;;;;13.66;87.11;101363.81;4900710;29;20571;-89
2022/06/29 03:02:22;;;;;;;6.67;5.73;;;;;;;13.56;86.58;101363.78;4900146;29;20340;-88
2022/06/29 03:04:50;;;;;;;8.30;5.53;;;;;;;13.50;87.32;101362.16;4900171;29;20033;-88
2022/06/29 03:07:59;;;;;;;7.97;6.18;;;;;;;13.67;87.37;101394.22;5040120;23;20048;-88
2022/06/29 03:10:25;;;;;;;8.85;5.78;;;;;;;13.38;87.86;101355.06;4899800;29;20459;-89
2022/06/29 03:12:53;;;;;;;7.53;6.30;;;;;;;13.58;87.84;101385.84;4901208;29;20033;-89
2022/06/29 03:15:25;;;;;;;9.87;6.30;;;;;;;13.31;88.14;101349.13;4899901;29;20108;-88
2022/06/29 03:18:09;;;;;;;8.90;6.40;;;;;;;13.35;88.92;101352.09;4896169;29;20076;-88
2022/06/29 03:20:47;;;;;;;9.70;7.60;;;;;;;13.37;89.35;101360.72;4883247;29;20108;-89
2022/06/29 03:23:53;;;;;;;;;;;;;;;;;;;;;
2022/06/29 03:26:26;;;;;;;8.68;6.65;;;;;;;13.43;89.12;101367.75;4895820;29;20441;-90
2022/06/29 03:32:16;;;;;;;11.48;7.68;;;;;;;13.26;88.33;101336.44;4050306;27;20064;-89
2022/06/29 03:35:08;;;;;;;8.90;7.15;;;;;;;13.37;88.58;101348.06;4841657;29;20545;-89
2022/06/29 03:37:56;;;;;;;8.90;6.40;;;;;;;13.36;88.88;101332.19;4817530;29;20057;-90
2022/06/29 03:43:25;;;;;;;12.00;7.60;;;;;;;13.18;89.57;101324.31;4847429;29;20306;-89
2022/06/29 03:46:12;;;;;;;11.40;7.78;;;;;;;13.39;89.46;101358.59;4910423;23;20033;-90
2022/06/29 03:52:33;;;;;;;7.88;7.07;;;;;;;13.33;89.05;101349.66;4767594;30;20036;-90
2022/06/29 03:56:00;;;;;;;9.55;7.40;;;;;;;13.27;88.58;101342.66;4820898;29;20191;-90
2022/06/29 03:58:57;;;;;;;9.70;7.35;;;;;;;13.13;89.43;101318.09;4735305;30;20051;-90
2022/06/29 04:02:00;;;;;;;9.93;7.53;;;;;;;13.04;90.05;101307.03;4750864;30;20051;-89
2022/06/29 04:07:36;;;;;;;10.10;6.82;;;;;;;13.04;89.74;101301.66;4786685;30;20114;-90
2022/06/29 04:10:26;;;;;;;9.63;7.50;;;;;;;13.20;89.98;101331.31;4770935;30;20040;-90
2022/06/29 04:12:57;;;;;;;9.30;7.67;;;;;;;13.11;91.04;101318.38;4782328;30;21016;-90
2022/06/29 04:18:16;;;;;;;13.43;7.70;;;;;;;13.11;91.49;101312.19;4804372;29;20530;-89
2022/06/29 04:21:06;;;;;;;8.30;7.43;;;;;;;13.12;90.82;101303.84;4775542;29;20055;-90
2022/06/29 04:24:06;;;;;;;10.00;7.50;;;;;;;13.37;89.79;101337.28;4786398;30;20439;-90
2022/06/29 04:26:50;;;;;;;13.00;8.40;;;;;;;13.38;90.98;101325.47;4786598;30;20042;-89
2022/06/29 04:29:37;;;;;;;9.40;8.05;;;;;;;13.71;90.30;101319.91;4832961;23;20048;-90
2022/06/29 04:32:10;;;;;;;14.82;8.52;;;;;;;13.87;89.68;101324.25;4898157;29;20383;-90
2022/06/29 04:35:14;;;;;;;10.02;8.82;;;;;;;13.94;88.66;101323.97;4908013;29;20036;-89
2022/06/29 04:38:05;;;;;;;12.47;8.87;;;;;;;13.99;88.58;101336.63;5138129;23;20056;-88
2022/06/29 04:40:33;;;;;;;12.70;9.40;;;;;;;13.80;89.57;101309.44;4901176;29;20285;-89
2022/06/29 04:43:31;;;;;;;14.88;9.40;;;;;;;14.00;89.14;101340.97;4898667;29;20031;-89
2022/06/29 04:46:24;;;;;;;12.77;9.82;;;;;;;14.14;88.71;101347.47;4899744;29;20044;-89
2022/06/29 04:49:09;;;;;;;11.65;9.43;;;;;;;14.39;87.55;101308.91;4898819;29;20071;-89
2022/06/29 04:51:37;;;;;;;15.15;9.10;;;;;;;15.09;85.38;101317.38;4899529;29;20047;-90
2022/06/29 04:54:19;;;;;;;9.88;8.68;;;;;;;16.62;80.47;101349.03;4901370;29;20036;-90
2022/06/29 04:57:14;;;;;;;;;;;;;;;;;;;;;
2022/06/29 05:00:13;;;;;;;12.07;7.57;;;;;;;19.61;71.75;101347.28;4898178;29;20036;-91
2022/06/29 05:02:47;;;;;;;10.45;7.40;;;;;;;20.63;66.09;101343.19;4898273;29;20033;-91
2022/06/29 05:05:40;;;;;;;8.60;6.17;;;;;;;21.55;65.39;101354.47;4898195;29;20036;-89
2022/06/29 05:09:05;;;;;;;9.40;6.10;;;;;;;22.12;62.33;101326.19;4899036;29;20284;-89
2022/06/29 05:15:16;;;;;;;10.02;5.72;;;;;;;23.20;53.85;101331.69;4798757;29;20026;-91
2022/06/29 05:25:00;;;;;;;9.90;7.07;;;;;;;24.16;53.51;101344.63;4769472;30;20336;-90
2022/06/29 05:27:41;;;;;;;9.20;6.55;;;;;;;24.37;53.27;101329.25;4750557;30;20040;-89
2022/06/29 05:30:12;;;;;;;11.13;6.32;;;;;;;24.57;50.05;101328.34;4764087;30;20051;-90
2022/06/29 05:33:04;;;;;;;9.00;6.10;;;;;;;24.68;49.36;101311.44;4763287;30;20032;-90
2022/06/29 05:38:40;;;;;;;12.32;6.68;;;;;;;24.90;50.43;101302.00;5044609;23;20056;-90
2022/06/29 05:41:15;;;;;;;7.53;5.47;;;;;;;24.99;47.51;101318.31;4876211;29;20048;-89
2022/06/29 05:44:16;;;;;;;9.40;5.80;;;;;;;25.22;48.94;101333.13;4899479;29;20036;-90
2022/06/29 05:46:42;;;;;;;10.15;6.00;;;;;;;24.98;46.63;101319.47;4888751;29;20021;-90
2022/06/29 05:49:23;;;;;;;7.97;5.80;;;;;;;24.66;48.58;101320.03;4900333;29;20021;-90
2022/06/29 05:52:33;;;;;;;7.97;5.82;;;;;;;24.24;48.40;101331.16;4900168;29;20033;-89
2022/06/29 05:55:01;;;;;;;8.00;6.20;;;;;;;23.53;50.51;101307.19;4893398;29;20059;-90
2022/06/29 05:57:48;;;;;;;11.03;5.87;;;;;;;23.60;51.91;101317.59;4901148;29;20033;-90
2022/06/29 06:00:14;;;;;;;7.70;6.27;;;;;;;23.40;51.55;101324.69;4901308;29;20341;-89
2022/06/29 06:02:39;;;;;;;11.60;5.63;;;;;;;23.40;51.69;101320.00;4900142;29;20025;-90
2022/06/29 06:05:06;;;;;;;11.60;6.40;;;;;;;23.39;51.87;101323.06;4895603;29;20033;-89
2022/06/29 06:38:33;;;;;;;7.80;6.00;;;;;;;21.33;58.42;101302.50;5809409;23;20097;-90
2022/06/29 06:44:20;;;;;;;7.55;6.20;;;;;;;21.25;58.80;101297.06;4884650;23;20063;-90
2022/06/29 06:46:51;;;;;;;9.48;6.38;;;;;;;21.07;60.99;101299.75;5128834;23;20475;-91
2022/06/29 06:49:29;;;;;;;10.98;7.10;;;;;;;21.10;60.66;101310.00;4886698;29;20116;-88
2022/06/29 06:52:07;;;;;;;11.05;6.57;;;;;;;21.13;60.18;101294.97;4902907;29;20029;-90
2022/06/29 06:54:46;;;;;;;9.20;6.00;;;;;;;21.11;61.05;101300.69;4902697;29;20067;-89
2022/06/29 06:57:48;;;;;;;7.03;5.47;;;;;;;21.36;61.33;101333.75;4902773;29;20051;-90
2022/06/29 07:01:01;;;;;;;6.00;5.30;;;;;;;21.20;60.86;101295.25;4902974;29;20055;-89
2022/06/29 07:03:37;;;;;;;7.78;5.05;;;;;;;21.43;59.92;101292.41;4826532;29;20050;-90
2022/06/29 07:06:17;;;;;;;5.80;4.83;;;;;;;21.43;60.50;101309.56;4827194;29;20075;-90
2022/06/29 07:09:12;;;;;;;7.13;5.37;;;;;;;21.47;60.11;101334.25;4827142;29;20724;-90
2022/06/29 07:11:37;;;;;;;6.15;4.70;;;;;;;21.10;60.45;101311.94;4826478;29;20053;-90
2022/06/29 07:14:05;;;;;;;7.63;4.70;;;;;;;20.93;61.14;101308.06;4826672;29;20030;-90
2022/06/29 07:16:33;;;;;;;7.37;4.30;;;;;;;20.84;62.37;101294.41;4824453;29;20294;-89
2022/06/29 07:19:17;;;;;;;5.00;3.65;;;;;;;21.14;62.16;101315.63;4823199;29;20318;-90
2022/06/29 07:22:35;;;;;;;5.22;4.22;;;;;;;21.36;62.02;101331.03;4822893;29;20050;-90
2022/06/29 07:25:12;;;;;;;6.93;4.18;;;;;;;21.72;60.07;101329.16;4823064;29;20049;-89
2022/06/29 07:27:38;;;;;;;7.93;4.25;;;;;;;22.08;59.98;101304.22;4823617;29;20244;-90
2022/06/29 07:35:16;;;;;;;5.05;3.60;;;;;;;22.62;58.10;101324.00;4960652;23;20060;-89
2022/06/29 07:37:42;;;;;;;7.40;3.28;;;;;;;22.66;58.34;101330.38;4899755;29;20038;-91
2022/06/29 07:40:08;;;;;;;8.65;3.30;;;;;;;22.65;56.88;101312.41;4899401;29;20052;-90
2022/06/29 07:42:35;;;;;;;5.30;3.20;;;;;;;22.73;55.64;101308.84;4899434;29;20021;-91
2022/06/29 07:45:39;;;;;;;7.28;2.90;;;;;;;22.92;56.31;101318.53;4912528;23;20037;-91
2022/06/29 07:48:34;;;;;;;7.35;2.55;;;;;;;22.69;55.47;101283.31;4804682;29;20500;-90
2022/06/29 07:51:40;;;;;;;6.80;2.77;;;;;;;22.86;54.61;101312.47;4804747;29;20565;-91
2022/06/29 07:54:37;;;;;;;4.03;2.30;;;;;;;22.84;53.86;101288.19;4892829;29;20304;-90
2022/06/29 07:57:03;;;;;;;6.88;2.40;;;;;;;22.92;52.82;101304.88;4805186;29;20485;-88
2022/06/29 07:59:35;;;;;;;3.90;2.42;;;;;;;23.13;53.90;101319.38;4880411;29;20089;-89
2022/06/29 08:05:23;;;;;;;3.53;2.00;;;;;;;23.62;52.07;101296.19;4906318;23;20103;-89
2022/06/29 08:08:01;;;;;;;4.72;2.60;;;;;;;23.82;53.81;101307.41;4899447;29;20067;-90
2022/06/29 08:10:39;;;;;;;3.97;2.20;;;;;;;23.70;52.92;101275.34;4898803;29;20048;-90
2022/06/29 08:19:04;;;;;;;3.10;2.30;;;;;;;24.03;52.45;101288.22;5671074;23;20108;-90
2022/06/29 08:21:39;;;;;;;4.82;2.67;;;;;;;24.42;52.82;101309.88;4898538;29;20032;-90
2022/06/29 08:24:05;;;;;;;4.85;2.47;;;;;;;24.81;49.77;101299.41;4899959;29;20029;-90
2022/06/29 08:30:13;;;;;;;5.22;2.40;;;;;;;25.03;48.03;101272.63;4898211;29;20051;-91
2022/06/29 08:33:09;;;;;;;5.57;2.33;;;;;;;25.10;48.05;101298.31;4898884;29;20040;-90
2022/06/29 08:40:44;;;;;;;3.40;1.90;;;;;;;25.18;46.13;101290.28;4895339;29;20104;-90
2022/06/29 08:43:15;;;;;;;5.07;2.42;;;;;;;25.33;46.59;101294.25;4897855;29;20035;-91
2022/06/29 09:04:40;;;;;;;1.90;1.67;;;;;;;26.77;43.91;101288.94;4909331;29;20304;-90
2022/06/29 09:27:29;;;;;;;2.83;1.80;;;;;;;27.36;42.51;101292.59;4910578;29;20411;-90
2022/06/29 09:33:49;;;;;;;2.23;1.80;;;;;;;27.51;41.72;101290.94;4911423;29;20307;-89
2022/06/29 09:37:18;;;;;;;6.83;1.70;;;;;;;27.58;41.36;101260.00;4901065;29;20032;-88
2022/06/29 09:39:47;;;;;;;6.93;1.70;;;;;;;27.51;39.95;101285.41;4868674;29;20049;-89
2022/06/29 09:45:43;;;;;;;2.90;1.55;;;;;;;27.78;40.72;101271.78;4927840;23;20105;-88
2022/06/29 09:58:59;;;;;;;1.40;1.30;;;;;;;27.73;40.94;101280.31;5692322;23;20055;-84
2022/06/29 10:05:15;;;;;;;3.35;1.73;;;;;;;28.03;38.79;101276.91;4956071;28;20454;-91
2022/06/29 10:08:05;;;;;;;5.57;2.10;;;;;;;28.02;39.66;101278.09;4952412;28;20058;-91
2022/06/29 10:14:22;;;;;;;3.80;1.60;;;;;;;28.32;38.56;101282.13;4953620;28;20090;-87
2022/06/29 10:17:41;;;;;;;3.70;1.65;;;;;;;28.38;36.07;101275.13;4956411;28;20508;-87
2022/06/29 10:20:40;;;;;;;2.63;1.70;;;;;;;28.35;35.82;101271.19;4938159;29;20040;-88
2022/06/29 10:23:06;;;;;;;2.35;1.70;;;;;;;28.44;35.84;101270.91;4949279;29;20039;-87
2022/06/29 10:25:40;;;;;;;1.83;1.57;;;;;;;28.26;37.27;101249.41;4960261;28;20041;-89
2022/06/29 10:28:18;;;;;;;3.35;1.80;;;;;;;28.34;37.59;101272.34;4952748;28;20027;-91
2022/06/29 10:30:44;;;;;;;2.03;1.17;;;;;;;28.37;36.40;101268.84;4958002;29;20031;-90
2022/06/29 10:33:28;;;;;;;2.92;1.40;;;;;;;28.82;36.96;101266.38;4945376;29;20023;-89
2022/06/29 10:36:35;;;;;;;4.70;1.37;;;;;;;29.32;35.72;101257.13;4974152;28;20035;-89
2022/06/29 10:39:21;;;;;;;2.87;1.90;;;;;;;29.64;36.49;101261.44;4962642;28;20293;-92
2022/06/29 10:48:35;;;;;;;3.03;1.60;;;;;;;30.27;35.29;101248.56;4956791;29;20159;-89
2022/06/29 10:58:12;;;;;;;9.25;1.90;;;;;;;30.17;34.26;101233.50;4898349;29;20173;-87
2022/06/29 11:01:14;;;;;;;2.78;1.98;;;;;;;30.22;32.83;101235.09;4897534;29;20043;-88
2022/06/29 11:12:11;;;;;;;3.88;1.77;;;;;;;30.22;32.18;101218.53;4957958;29;20071;-90
2022/06/29 11:30:34;;;;;;;2.05;1.80;;;;;;;30.71;31.90;101222.00;4953271;29;20862;-87
2022/06/29 11:33:10;;;;;;;3.65;1.70;;;;;;;30.47;32.22;101215.91;5067736;23;20141;-88
2022/06/29 11:35:35;;;;;;;3.63;2.00;;;;;;;30.44;32.47;101224.19;4971190;28;20026;-87
2022/06/29 11:38:05;;;;;;;3.57;2.10;;;;;;;30.56;30.78;101214.81;4967691;28;20314;-87
2022/06/29 11:46:39;;;;;;;2.27;1.80;;;;;;;30.47;31.41;101176.44;4934697;29;20323;-87
2022/06/29 11:52:05;;;;;;;2.67;1.80;;;;;;;30.90;31.05;101204.28;4935217;29;20095;-87
2022/06/29 11:54:38;;;;;;;3.90;1.60;;;;;;;30.96;31.28;101202.75;4932040;29;20031;-86
2022/06/29 11:57:15;;;;;;;4.90;2.10;;;;;;;31.13;32.46;101197.66;4936025;29;20034;-88
2022/06/29 11:59:44;;;;;;;5.32;1.42;;;;;;;31.95;31.48;101200.94;4935493;29;20032;-88
2022/06/29 12:02:13;;;;;;;3.97;1.90;;;;;;;32.41;29.90;101199.31;4916737;29;20660;-87
2022/06/29 12:04:40;;;;;;;2.88;1.92;;;;;;;32.32;28.94;101192.19;4931069;29;20435;-87
2022/06/29 12:07:17;;;;;;;3.80;1.88;;;;;;;32.22;29.46;101186.66;4933777;29;20035;-87
2022/06/29 12:09:45;;;;;;;2.83;1.83;;;;;;;32.22;30.03;101187.44;4934792;29;20063;-86
2022/06/29 12:12:12;;;;;;;5.47;1.87;;;;;;;31.85;28.70;101177.63;4931328;29;20303;-87
2022/06/29 12:14:40;;;;;;;3.22;2.00;;;;;;;31.79;26.83;101174.44;4915410;29;20131;-87
2022/06/29 12:17:07;;;;;;;2.78;1.70;;;;;;;31.59;28.34;101176.00;4933591;29;20043;-87
2022/06/29 12:19:35;;;;;;;2.20;1.67;;;;;;;31.37;29.58;101167.69;4934448;29;20050;-88
2022/06/29 12:22:00;;;;;;;4.18;1.83;;;;;;;31.25;28.80;101166.84;4913081;29;20039;-84
2022/06/29 12:24:26;;;;;;;3.60;1.57;;;;;;;30.90;29.90;101165.56;4933629;29;20078;-81
2022/06/29 12:26:53;;;;;;;4.65;1.70;;;;;;;31.26;30.23;101171.22;4925795;29;20028;-83
2022/06/29 12:29:36;;;;;;;3.00;1.90;;;;;;;31.19;30.73;101170.41;4933672;29;20126;-83
2022/06/29 12:32:07;;;;;;;2.83;1.73;;;;;;;31.05;29.16;101165.59;4932682;29;20499;-83
2022/06/29 12:34:33;;;;;;;4.63;1.90;;;;;;;31.19;28.55;101157.38;4933587;29;20416;-84
2022/06/29 12:36:59;;;;;;;4.07;1.80;;;;;;;31.41;29.42;101155.41;4933073;29;20024;-83
2022/06/29 12:39:27;;;;;;;3.72;1.70;;;;;;;31.75;30.33;101162.59;4932385;29;20158;-84
2022/06/29 12:41:55;;;;;;;3.90;2.30;;;;;;;32.20;28.98;101166.84;4933504;29;20051;-83
2022/06/29 12:44:21;;;;;;;3.40;2.00;;;;;;;32.13;28.18;101170.44;4932666;29;20111;-84
2022/06/29 12:46:46;;;;;;;4.00;2.30;;;;;;;31.53;29.81;101168.09;4917148;29;20027;-84
2022/06/29 12:49:12;;;;;;;2.97;1.57;;;;;;;30.80;30.19;101161.59;4933816;29;20046;-83
2022/06/29 12:52:03;;;;;;;2.53;2.00;;;;;;;30.38;32.13;101151.91;4933791;29;20024;-85
2022/06/29 12:54:47;;;;;;;2.47;1.80;;;;;;;30.36;31.03;101149.53;4913273;29;20076;-83
2022/06/29 12:57:12;;;;;;;2.97;1.95;;;;;;;30.45;30.38;101159.44;4923883;29;20038;-89
2022/06/29 12:59:40;;;;;;;2.70;1.70;;;;;;;30.50;31.12;101148.81;4927718;29;20036;-90
2022/06/29 13:02:06;;;;;;;5.15;1.95;;;;;;;30.63;29.57;101165.88;4930192;29;20039;-90
2022/06/29 13:04:31;;;;;;;4.25;1.70;;;;;;;31.00;29.66;101163.22;4955545;28;20020;-90
2022/06/29 13:06:57;;;;;;;2.17;1.70;;;;;;;31.62;30.93;101162.16;4957778;28;20067;-89
2022/06/29 13:09:23;;;;;;;2.53;1.60;;;;;;;31.94;30.11;101172.44;4954529;28;20039;-91
2022/06/29 13:11:48;;;;;;;3.28;1.67;;;;;;;31.96;28.01;101167.28;4956951;28;20059;-89
2022/06/29 13:14:15;;;;;;;4.03;2.00;;;;;;;31.86;29.88;101159.81;4956991;28;20015;-90
2022/06/29 13:16:42;;;;;;;3.00;1.97;;;;;;;31.67;30.44;101160.97;4936178;29;20152;-92
2022/06/29 13:19:07;;;;;;;2.30;2.10;;;;;;;31.30;31.42;101159.34;4933225;29;20032;-87
2022/06/29 13:21:33;;;;;;;2.28;2.00;;;;;;;31.37;32.09;101142.78;4933120;29;20051;-89
2022/06/29 13:23:59;;;;;;;2.13;1.90;;;;;;;31.53;28.43;101140.41;4935355;29;20032;-85
2022/06/29 13:26:29;;;;;;;3.80;2.47;;;;;;;31.62;29.61;101147.50;4934023;29;20139;-86
2022/06/29 13:28:54;;;;;;;4.78;2.00;;;;;;;31.83;30.28;101143.97;4924990;29;20020;-86
2022/06/29 13:31:19;;;;;;;5.27;2.10;;;;;;;31.25;30.79;101143.94;4934443;29;20505;-91
2022/06/29 13:46:08;;;;;;;3.40;1.70;;;;;;;29.90;32.38;101123.19;5043124;23;20058;-91
2022/06/29 13:49:10;;;;;;;3.73;1.90;;;;;;;30.31;32.65;101108.44;4970826;28;20099;-92
2022/06/29 13:51:35;;;;;;;2.28;1.80;;;;;;;30.69;31.32;101126.78;4965454;28;20058;-92
2022/06/29 13:59:32;;;;;;;2.85;2.00;;;;;;;30.39;31.92;101119.53;4954805;29;20039;-92
2022/06/29 15:47:56;;;;;;;4.85;2.53;;;;;;;36.41;23.46;101071.81;5641992;23;20036;-93
2022/06/29 17:41:19;;;;;;;4.00;2.45;;;;;;;33.16;28.36;100994.78;4924970;29;20090;-95
2022/06/29 17:55:17;;;;;;;7.00;3.20;;;;;;;31.34;33.32;100988.56;5040004;23;20070;-94
2022/06/29 17:58:07;;;;;;;3.30;2.47;;;;;;;30.64;34.59;100976.69;4931448;29;20085;-94
2022/06/29 18:01:29;;;;;;;4.45;2.33;;;;;;;30.40;35.42;100958.84;4937704;29;20657;-93
2022/06/29 19:43:40;;;;;;;;;;;;;;;;;;;;;
2022/06/29 19:49:46;;;;;;;6.93;3.00;;;;;;;24.96;51.60;100966.25;4908044;29;20149;-93
2022/06/29 19:52:39;;;;;;;4.15;3.00;;;;;;;25.02;52.15;100995.00;4918957;29;20043;-92
2022/06/29 19:55:04;;;;;;;5.53;2.95;;;;;;;24.72;54.29;100978.97;4918762;29;20024;-91
2022/06/29 19:57:36;;;;;;;6.67;2.80;;;;;;;24.60;54.39;100982.53;4917994;29;20040;-92
2022/06/29 20:03:34;;;;;;;7.25;3.58;;;;;;;24.37;54.69;100987.78;5665358;23;20033;-88
2022/06/29 20:06:01;;;;;;;4.68;2.90;;;;;;;24.31;56.01;101000.13;4897897;29;20477;-92
2022/06/29 20:08:26;;;;;;;7.20;3.58;;;;;;;24.24;56.42;101008.94;4903715;29;20081;-91
2022/06/29 20:10:52;;;;;;;4.80;3.00;;;;;;;24.23;56.81;101004.59;4905214;29;20035;-91
2022/06/29 20:13:18;;;;;;;8.13;3.42;;;;;;;24.12;57.23;101015.22;4887862;29;20029;-89
2022/06/29 20:15:44;;;;;;;7.00;3.60;;;;;;;24.06;57.95;101010.34;4861931;29;20033;-91
2022/06/29 20:18:12;;;;;;;8.98;3.83;;;;;;;24.00;58.41;101012.53;4878251;29;20032;-92
2022/06/29 20:20:38;;;;;;;7.37;3.93;;;;;;;23.98;58.22;101014.81;4880755;29;20025;-90
2022/06/29 20:23:03;;;;;;;6.70;4.70;;;;;;;23.88;58.95;101021.53;4879243;29;20723;-91
2022/06/29 20:25:29;;;;;;;8.05;4.47;;;;;;;23.81;58.96;101015.81;4878167;29;20071;-91
2022/06/29 20:27:54;;;;;;;8.20;4.50;;;;;;;23.70;59.62;101013.56;4878996;29;20033;-92
2022/06/29 20:30:20;;;;;;;5.65;5.15;;;;;;;23.57;60.31;101011.97;4883208;29;20033;-92
2022/06/29 20:32:47;;;;;;;8.77;4.73;;;;;;;23.53;60.33;101022.78;4878077;29;20388;-93
2022/06/29 20:35:13;;;;;;;6.55;4.65;;;;;;;23.48;60.33;101019.50;4877202;29;20036;-93
2022/06/29 20:37:39;;;;;;;9.20;5.10;;;;;;;23.41;61.33;101023.56;4880228;29;20033;-92
2022/06/29 20:40:07;;;;;;;7.00;5.28;;;;;;;23.34;62.13;101014.34;4886118;29;20036;-89
2022/06/29 20:42:33;;;;;;;6.68;5.55;;;;;;;23.26;62.55;101030.53;4881299;29;20032;-89
2022/06/29 20:47:49;;;;;;;7.28;5.50;;;;;;;23.04;63.61;101012.56;4899545;29;20065;-92
2022/06/29 20:50:14;;;;;;;9.45;5.40;;;;;;;22.97;64.17;101013.13;4901271;29;20013;-94
2022/06/29 20:52:39;;;;;;;12.73;5.27;;;;;;;22.97;63.63;101009.63;4900781;29;20101;-94
2022/06/29 20:55:05;;;;;;;8.50;5.27;;;;;;;22.84;64.27;100997.84;4901710;29;20281;-92
2022/06/29 20:57:31;;;;;;;10.00;5.23;;;;;;;22.82;64.63;101020.03;4895093;29;20044;-92
2022/06/29 20:59:57;;;;;;;9.45;5.10;;;;;;;22.65;65.49;101006.53;4879305;29;20033;-92
2022/06/29 21:02:22;;;;;;;8.70;5.03;;;;;;;22.70;65.14;101009.06;4879393;29;20028;-93
2022/06/29 21:04:48;;;;;;;9.07;5.82;;;;;;;22.54;65.79;101001.50;4879939;29;20482;-93
2022/06/29 21:07:14;;;;;;;7.77;5.43;;;;;;;22.46;65.94;101018.75;4863237;29;20036;-94
2022/06/29 21:09:40;;;;;;;14.48;5.63;;;;;;;22.39;65.94;101004.81;4879940;29;20132;-94
2022/06/29 21:12:07;;;;;;;11.37;5.97;;;;;;;22.37;66.66;101012.56;4865447;29;20081;-95
2022/06/29 21:14:33;;;;;;;18.00;5.85;;;;;;;22.28;67.69;101009.88;4882327;29;20033;-94
2022/06/29 21:16:58;;;;;;;11.87;5.90;;;;;;;22.22;68.11;101011.22;4883431;29;20093;-93
2022/06/29 21:19:23;;;;;;;13.18;5.28;;;;;;;22.19;68.12;101020.88;4886709;29;20017;-95
2022/06/29 21:21:49;;;;;;;9.33;5.37;;;;;;;22.17;68.61;101019.63;4886555;29;20029;-95
2022/06/29 21:24:15;;;;;;;16.70;5.53;;;;;;;22.03;70.12;101006.22;4902582;29;20025;-95
2022/06/29 21:26:41;;;;;;;6.47;4.97;;;;;;;22.03;70.12;101017.13;4883855;29;20029;-91
2022/06/29 21:29:06;;;;;;;9.20;4.73;;;;;;;22.00;69.14;101004.16;4903305;29;20037;-93
2022/06/29 21:31:32;;;;;;;6.53;5.07;;;;;;;21.97;69.38;101011.09;4887241;29;20084;-94
2022/06/29 21:33:58;;;;;;;12.27;5.38;;;;;;;21.88;70.28;101010.34;4902858;29;20046;-93
2022/06/29 21:36:23;;;;;;;6.93;4.93;;;;;;;21.82;70.04;101008.94;4902012;29;20021;-91
2022/06/29 21:38:50;;;;;;;9.35;4.35;;;;;;;21.74;70.27;101010.56;4899086;29;20027;-92